sensor_id;sensor_type;location;lat;lon;timestamp;P1;durP1;ratioP1;P2;durP2;ratioP2
69956;SDS011;57283;54.816;9.482;2023-03-11T00:01:18;7.95;;;3.33;;
69956;SDS011;57283;54.816;9.482;2023-03-11T00:03:46;8.20;;;3.10;;
69956;SDS011;57283;54.816;9.482;2023-03-11T00:06:15;10.40;;;3.30;;
69956;SDS011;57283;54.816;9.482;2023-03-11T00:08:43;8.57;;;3.63;;
69956;SDS011;57283;54.816;9.482;2023-03-11T00:11:10;9.98;;;3.55;;
69956;SDS011;57283;54.816;9.482;2023-03-11T00:13:38;9.55;;;2.85;;
69956;SDS011;57283;54.816;9.482;2023-03-11T00:16:06;10.50;;;3.35;;
69956;SDS011;57283;54.816;9.482;2023-03-11T00:18:34;7.97;;;2.63;;
69956;SDS011;57283;54.816;9.482;2023-03-11T00:21:01;7.10;;;3.00;;
69956;SDS011;57283;54.816;9.482;2023-03-11T00:23:30;8.88;;;3.15;;
69956;SDS011;57283;54.816;9.482;2023-03-11T00:25:59;7.90;;;3.28;;
69956;SDS011;57283;54.816;9.482;2023-03-11T00:28:28;7.07;;;2.65;;
69956;SDS011;57283;54.816;9.482;2023-03-11T00:30:59;6.80;;;3.17;;
69956;SDS011;57283;54.816;9.482;2023-03-11T00:33:27;8.73;;;3.30;;
69956;SDS011;57283;54.816;9.482;2023-03-11T00:35:54;9.13;;;3.60;;
69956;SDS011;57283;54.816;9.482;2023-03-11T00:38:22;7.10;;;3.40;;
69956;SDS011;57283;54.816;9.482;2023-03-11T00:40:51;9.93;;;3.15;;
69956;SDS011;57283;54.816;9.482;2023-03-11T00:43:19;7.50;;;2.97;;
69956;SDS011;57283;54.816;9.482;2023-03-11T00:45:46;8.25;;;2.70;;
69956;SDS011;57283;54.816;9.482;2023-03-11T00:48:14;6.57;;;3.00;;
69956;SDS011;57283;54.816;9.482;2023-03-11T00:50:41;7.35;;;2.90;;
69956;SDS011;57283;54.816;9.482;2023-03-11T00:53:09;11.57;;;2.85;;
69956;SDS011;57283;54.816;9.482;2023-03-11T00:55:37;7.70;;;3.00;;
69956;SDS011;57283;54.816;9.482;2023-03-11T00:58:06;8.07;;;2.95;;
69956;SDS011;57283;54.816;9.482;2023-03-11T01:00:34;7.93;;;3.03;;
69956;SDS011;57283;54.816;9.482;2023-03-11T01:03:01;7.18;;;3.00;;
69956;SDS011;57283;54.816;9.482;2023-03-11T01:05:30;6.70;;;3.03;;
69956;SDS011;57283;54.816;9.482;2023-03-11T01:07:58;9.33;;;3.03;;
69956;SDS011;57283;54.816;9.482;2023-03-11T01:10:26;7.40;;;2.72;;
69956;SDS011;57283;54.816;9.482;2023-03-11T01:12:54;6.72;;;2.80;;
69956;SDS011;57283;54.816;9.482;2023-03-11T01:15:23;6.93;;;3.00;;
69956;SDS011;57283;54.816;9.482;2023-03-11T01:17:51;8.02;;;2.85;;
69956;SDS011;57283;54.816;9.482;2023-03-11T01:20:19;6.27;;;2.50;;
69956;SDS011;57283;54.816;9.482;2023-03-11T01:22:47;8.10;;;3.40;;
69956;SDS011;57283;54.816;9.482;2023-03-11T01:25:16;12.07;;;4.07;;
69956;SDS011;57283;54.816;9.482;2023-03-11T01:27:44;7.93;;;3.58;;
69956;SDS011;57283;54.816;9.482;2023-03-11T01:30:12;9.57;;;3.75;;
69956;SDS011;57283;54.816;9.482;2023-03-11T01:32:42;8.87;;;3.23;;
69956;SDS011;57283;54.816;9.482;2023-03-11T01:35:10;10.02;;;3.40;;
69956;SDS011;57283;54.816;9.482;2023-03-11T01:37:38;10.13;;;4.05;;
69956;SDS011;57283;54.816;9.482;2023-03-11T01:40:07;9.85;;;3.85;;
69956;SDS011;57283;54.816;9.482;2023-03-11T01:42:35;7.00;;;2.88;;
69956;SDS011;57283;54.816;9.482;2023-03-11T01:45:05;9.20;;;3.47;;
69956;SDS011;57283;54.816;9.482;2023-03-11T01:47:44;7.65;;;3.13;;
69956;SDS011;57283;54.816;9.482;2023-03-11T01:50:12;6.20;;;2.78;;
69956;SDS011;57283;54.816;9.482;2023-03-11T01:52:40;8.80;;;3.05;;
69956;SDS011;57283;54.816;9.482;2023-03-11T01:55:09;8.02;;;2.65;;
69956;SDS011;57283;54.816;9.482;2023-03-11T01:57:38;7.53;;;2.80;;
69956;SDS011;57283;54.816;9.482;2023-03-11T02:00:08;9.57;;;3.38;;
69956;SDS011;57283;54.816;9.482;2023-03-11T02:02:39;7.13;;;2.55;;
69956;SDS011;57283;54.816;9.482;2023-03-11T02:05:09;7.65;;;3.40;;
69956;SDS011;57283;54.816;9.482;2023-03-11T02:07:37;8.75;;;2.95;;
69956;SDS011;57283;54.816;9.482;2023-03-11T02:10:05;6.80;;;2.50;;
69956;SDS011;57283;54.816;9.482;2023-03-11T02:12:34;9.80;;;3.40;;
69956;SDS011;57283;54.816;9.482;2023-03-11T02:15:02;11.52;;;3.28;;
69956;SDS011;57283;54.816;9.482;2023-03-11T02:17:30;8.57;;;2.95;;
69956;SDS011;57283;54.816;9.482;2023-03-11T02:20:01;7.63;;;3.40;;
69956;SDS011;57283;54.816;9.482;2023-03-11T02:22:32;7.23;;;2.33;;
69956;SDS011;57283;54.816;9.482;2023-03-11T02:25:03;6.35;;;2.30;;
69956;SDS011;57283;54.816;9.482;2023-03-11T02:27:32;6.80;;;2.35;;
69956;SDS011;57283;54.816;9.482;2023-03-11T02:30:01;5.57;;;2.13;;
69956;SDS011;57283;54.816;9.482;2023-03-11T02:32:29;5.55;;;2.47;;
69956;SDS011;57283;54.816;9.482;2023-03-11T02:34:57;6.93;;;2.20;;
69956;SDS011;57283;54.816;9.482;2023-03-11T02:37:25;7.00;;;2.70;;
69956;SDS011;57283;54.816;9.482;2023-03-11T02:39:53;7.18;;;2.65;;
69956;SDS011;57283;54.816;9.482;2023-03-11T02:42:21;6.50;;;2.80;;
69956;SDS011;57283;54.816;9.482;2023-03-11T02:44:53;8.25;;;2.70;;
69956;SDS011;57283;54.816;9.482;2023-03-11T02:47:22;8.07;;;2.23;;
69956;SDS011;57283;54.816;9.482;2023-03-11T02:49:49;6.93;;;2.60;;
69956;SDS011;57283;54.816;9.482;2023-03-11T02:52:18;5.53;;;2.35;;
69956;SDS011;57283;54.816;9.482;2023-03-11T02:54:46;6.35;;;2.33;;
69956;SDS011;57283;54.816;9.482;2023-03-11T02:57:13;9.75;;;2.83;;
69956;SDS011;57283;54.816;9.482;2023-03-11T02:59:41;5.13;;;2.43;;
69956;SDS011;57283;54.816;9.482;2023-03-11T03:02:10;4.40;;;1.90;;
69956;SDS011;57283;54.816;9.482;2023-03-11T03:04:37;5.18;;;2.10;;
69956;SDS011;57283;54.816;9.482;2023-03-11T03:07:05;6.88;;;2.45;;
69956;SDS011;57283;54.816;9.482;2023-03-11T03:09:33;6.25;;;2.20;;
69956;SDS011;57283;54.816;9.482;2023-03-11T03:12:01;6.90;;;2.00;;
69956;SDS011;57283;54.816;9.482;2023-03-11T03:14:29;5.10;;;2.03;;
69956;SDS011;57283;54.816;9.482;2023-03-11T03:16:56;5.60;;;1.90;;
69956;SDS011;57283;54.816;9.482;2023-03-11T03:19:26;5.90;;;2.05;;
69956;SDS011;57283;54.816;9.482;2023-03-11T03:21:53;6.95;;;2.60;;
69956;SDS011;57283;54.816;9.482;2023-03-11T03:24:21;5.40;;;1.93;;
69956;SDS011;57283;54.816;9.482;2023-03-11T03:26:48;8.68;;;2.45;;
69956;SDS011;57283;54.816;9.482;2023-03-11T03:29:17;9.77;;;2.50;;
69956;SDS011;57283;54.816;9.482;2023-03-11T03:31:44;5.53;;;1.95;;
69956;SDS011;57283;54.816;9.482;2023-03-11T03:34:12;6.88;;;2.53;;
69956;SDS011;57283;54.816;9.482;2023-03-11T03:36:41;4.83;;;1.77;;
69956;SDS011;57283;54.816;9.482;2023-03-11T03:39:09;5.45;;;2.05;;
69956;SDS011;57283;54.816;9.482;2023-03-11T03:41:36;6.22;;;2.70;;
69956;SDS011;57283;54.816;9.482;2023-03-11T03:44:04;4.75;;;2.03;;
69956;SDS011;57283;54.816;9.482;2023-03-11T03:46:31;7.07;;;2.50;;
69956;SDS011;57283;54.816;9.482;2023-03-11T03:48:59;6.53;;;2.67;;
69956;SDS011;57283;54.816;9.482;2023-03-11T03:51:26;7.53;;;3.05;;
69956;SDS011;57283;54.816;9.482;2023-03-11T03:53:55;7.15;;;2.63;;
69956;SDS011;57283;54.816;9.482;2023-03-11T03:56:23;4.85;;;2.08;;
69956;SDS011;57283;54.816;9.482;2023-03-11T03:58:51;9.15;;;2.65;;
69956;SDS011;57283;54.816;9.482;2023-03-11T04:01:19;5.17;;;2.00;;
69956;SDS011;57283;54.816;9.482;2023-03-11T04:03:47;6.85;;;2.50;;
69956;SDS011;57283;54.816;9.482;2023-03-11T04:06:15;6.43;;;2.55;;
69956;SDS011;57283;54.816;9.482;2023-03-11T04:08:43;7.47;;;2.90;;
69956;SDS011;57283;54.816;9.482;2023-03-11T04:11:12;5.25;;;2.10;;
69956;SDS011;57283;54.816;9.482;2023-03-11T04:13:40;5.30;;;1.70;;
69956;SDS011;57283;54.816;9.482;2023-03-11T04:16:11;6.32;;;2.58;;
69956;SDS011;57283;54.816;9.482;2023-03-11T04:18:42;6.43;;;2.45;;
69956;SDS011;57283;54.816;9.482;2023-03-11T04:21:10;8.20;;;2.40;;
69956;SDS011;57283;54.816;9.482;2023-03-11T04:23:37;5.22;;;2.47;;
69956;SDS011;57283;54.816;9.482;2023-03-11T04:26:05;8.70;;;2.30;;
69956;SDS011;57283;54.816;9.482;2023-03-11T04:28:34;6.18;;;2.20;;
69956;SDS011;57283;54.816;9.482;2023-03-11T04:31:02;7.45;;;2.38;;
69956;SDS011;57283;54.816;9.482;2023-03-11T04:33:29;6.05;;;2.33;;
69956;SDS011;57283;54.816;9.482;2023-03-11T04:35:57;5.47;;;1.98;;
69956;SDS011;57283;54.816;9.482;2023-03-11T04:38:25;5.17;;;1.53;;
69956;SDS011;57283;54.816;9.482;2023-03-11T04:40:52;5.47;;;1.80;;
69956;SDS011;57283;54.816;9.482;2023-03-11T04:43:20;5.70;;;2.20;;
69956;SDS011;57283;54.816;9.482;2023-03-11T04:45:50;6.18;;;2.60;;
69956;SDS011;57283;54.816;9.482;2023-03-11T04:48:22;5.53;;;2.10;;
69956;SDS011;57283;54.816;9.482;2023-03-11T04:50:49;4.20;;;1.73;;
69956;SDS011;57283;54.816;9.482;2023-03-11T04:53:17;7.55;;;2.55;;
69956;SDS011;57283;54.816;9.482;2023-03-11T04:55:45;6.65;;;2.42;;
69956;SDS011;57283;54.816;9.482;2023-03-11T04:58:13;7.35;;;2.80;;
69956;SDS011;57283;54.816;9.482;2023-03-11T05:00:41;5.15;;;2.00;;
69956;SDS011;57283;54.816;9.482;2023-03-11T05:03:10;5.83;;;2.03;;
69956;SDS011;57283;54.816;9.482;2023-03-11T05:05:37;5.25;;;1.88;;
69956;SDS011;57283;54.816;9.482;2023-03-11T05:08:05;5.03;;;2.08;;
69956;SDS011;57283;54.816;9.482;2023-03-11T05:10:33;6.20;;;1.95;;
69956;SDS011;57283;54.816;9.482;2023-03-11T05:13:00;3.67;;;1.60;;
69956;SDS011;57283;54.816;9.482;2023-03-11T05:15:28;6.33;;;2.40;;
69956;SDS011;57283;54.816;9.482;2023-03-11T05:17:56;6.10;;;1.63;;
69956;SDS011;57283;54.816;9.482;2023-03-11T05:20:25;3.70;;;1.30;;
69956;SDS011;57283;54.816;9.482;2023-03-11T05:22:53;4.53;;;1.95;;
69956;SDS011;57283;54.816;9.482;2023-03-11T05:25:21;9.05;;;3.03;;
69956;SDS011;57283;54.816;9.482;2023-03-11T05:27:48;4.47;;;1.70;;
69956;SDS011;57283;54.816;9.482;2023-03-11T05:30:16;6.32;;;1.92;;
69956;SDS011;57283;54.816;9.482;2023-03-11T05:32:43;5.15;;;1.77;;
69956;SDS011;57283;54.816;9.482;2023-03-11T05:35:11;8.95;;;2.13;;
69956;SDS011;57283;54.816;9.482;2023-03-11T05:37:40;5.95;;;1.83;;
69956;SDS011;57283;54.816;9.482;2023-03-11T05:40:09;7.00;;;2.13;;
69956;SDS011;57283;54.816;9.482;2023-03-11T05:42:37;4.40;;;1.30;;
69956;SDS011;57283;54.816;9.482;2023-03-11T05:45:06;6.60;;;1.55;;
69956;SDS011;57283;54.816;9.482;2023-03-11T05:47:34;7.30;;;2.15;;
69956;SDS011;57283;54.816;9.482;2023-03-11T05:50:02;5.82;;;1.90;;
69956;SDS011;57283;54.816;9.482;2023-03-11T05:52:30;4.77;;;1.83;;
69956;SDS011;57283;54.816;9.482;2023-03-11T05:55:00;6.10;;;2.13;;
69956;SDS011;57283;54.816;9.482;2023-03-11T05:57:28;3.45;;;1.08;;
69956;SDS011;57283;54.816;9.482;2023-03-11T05:59:55;3.75;;;1.70;;
69956;SDS011;57283;54.816;9.482;2023-03-11T06:02:23;8.30;;;2.03;;
69956;SDS011;57283;54.816;9.482;2023-03-11T06:04:51;5.17;;;1.40;;
69956;SDS011;57283;54.816;9.482;2023-03-11T06:07:19;5.60;;;1.73;;
69956;SDS011;57283;54.816;9.482;2023-03-11T06:09:48;4.38;;;1.20;;
69956;SDS011;57283;54.816;9.482;2023-03-11T06:12:17;4.15;;;1.30;;
69956;SDS011;57283;54.816;9.482;2023-03-11T06:14:45;3.95;;;1.13;;
69956;SDS011;57283;54.816;9.482;2023-03-11T06:17:12;4.93;;;1.67;;
69956;SDS011;57283;54.816;9.482;2023-03-11T06:19:40;6.45;;;1.65;;
69956;SDS011;57283;54.816;9.482;2023-03-11T06:22:08;3.58;;;1.42;;
69956;SDS011;57283;54.816;9.482;2023-03-11T06:24:35;8.25;;;1.58;;
69956;SDS011;57283;54.816;9.482;2023-03-11T06:27:03;4.00;;;1.48;;
69956;SDS011;57283;54.816;9.482;2023-03-11T06:29:32;4.93;;;1.73;;
69956;SDS011;57283;54.816;9.482;2023-03-11T06:32:00;4.68;;;1.40;;
69956;SDS011;57283;54.816;9.482;2023-03-11T06:34:27;4.97;;;1.48;;
69956;SDS011;57283;54.816;9.482;2023-03-11T06:36:55;3.78;;;1.50;;
69956;SDS011;57283;54.816;9.482;2023-03-11T06:39:24;6.55;;;1.85;;
69956;SDS011;57283;54.816;9.482;2023-03-11T06:41:52;7.20;;;1.30;;
69956;SDS011;57283;54.816;9.482;2023-03-11T06:44:19;4.65;;;1.20;;
69956;SDS011;57283;54.816;9.482;2023-03-11T06:46:48;5.57;;;1.98;;
69956;SDS011;57283;54.816;9.482;2023-03-11T06:49:16;5.10;;;1.65;;
69956;SDS011;57283;54.816;9.482;2023-03-11T06:51:44;3.80;;;1.45;;
69956;SDS011;57283;54.816;9.482;2023-03-11T06:54:11;4.20;;;1.60;;
69956;SDS011;57283;54.816;9.482;2023-03-11T06:56:39;5.68;;;2.05;;
69956;SDS011;57283;54.816;9.482;2023-03-11T06:59:06;4.40;;;1.70;;
69956;SDS011;57283;54.816;9.482;2023-03-11T07:01:34;6.30;;;2.00;;
69956;SDS011;57283;54.816;9.482;2023-03-11T07:04:03;5.60;;;2.20;;
69956;SDS011;57283;54.816;9.482;2023-03-11T07:06:31;5.07;;;1.55;;
69956;SDS011;57283;54.816;9.482;2023-03-11T07:08:58;4.23;;;1.67;;
69956;SDS011;57283;54.816;9.482;2023-03-11T07:11:26;4.03;;;1.60;;
69956;SDS011;57283;54.816;9.482;2023-03-11T07:13:54;4.63;;;1.70;;
69956;SDS011;57283;54.816;9.482;2023-03-11T07:16:23;4.90;;;1.70;;
69956;SDS011;57283;54.816;9.482;2023-03-11T07:18:51;4.47;;;1.90;;
69956;SDS011;57283;54.816;9.482;2023-03-11T07:21:22;5.07;;;1.90;;
69956;SDS011;57283;54.816;9.482;2023-03-11T07:23:50;5.13;;;2.10;;
69956;SDS011;57283;54.816;9.482;2023-03-11T07:26:18;4.32;;;1.90;;
69956;SDS011;57283;54.816;9.482;2023-03-11T07:28:46;5.07;;;1.80;;
69956;SDS011;57283;54.816;9.482;2023-03-11T07:31:15;4.07;;;1.90;;
69956;SDS011;57283;54.816;9.482;2023-03-11T07:33:43;4.90;;;1.90;;
69956;SDS011;57283;54.816;9.482;2023-03-11T07:36:11;4.10;;;1.73;;
69956;SDS011;57283;54.816;9.482;2023-03-11T07:38:41;4.60;;;1.92;;
69956;SDS011;57283;54.816;9.482;2023-03-11T07:41:09;4.70;;;1.80;;
69956;SDS011;57283;54.816;9.482;2023-03-11T07:43:37;4.30;;;1.73;;
69956;SDS011;57283;54.816;9.482;2023-03-11T07:46:06;3.93;;;1.67;;
69956;SDS011;57283;54.816;9.482;2023-03-11T07:48:34;3.85;;;1.65;;
69956;SDS011;57283;54.816;9.482;2023-03-11T07:51:03;3.92;;;1.63;;
69956;SDS011;57283;54.816;9.482;2023-03-11T07:53:31;3.97;;;1.60;;
69956;SDS011;57283;54.816;9.482;2023-03-11T07:56:00;3.78;;;1.63;;
69956;SDS011;57283;54.816;9.482;2023-03-11T07:58:28;4.90;;;1.70;;
69956;SDS011;57283;54.816;9.482;2023-03-11T08:00:55;5.38;;;1.65;;
69956;SDS011;57283;54.816;9.482;2023-03-11T08:03:23;5.05;;;1.80;;
69956;SDS011;57283;54.816;9.482;2023-03-11T08:05:51;6.03;;;1.90;;
69956;SDS011;57283;54.816;9.482;2023-03-11T08:08:18;3.92;;;1.35;;
69956;SDS011;57283;54.816;9.482;2023-03-11T08:10:46;3.50;;;1.40;;
69956;SDS011;57283;54.816;9.482;2023-03-11T08:13:15;4.03;;;1.70;;
69956;SDS011;57283;54.816;9.482;2023-03-11T08:15:43;3.70;;;1.42;;
69956;SDS011;57283;54.816;9.482;2023-03-11T08:18:10;4.45;;;1.50;;
69956;SDS011;57283;54.816;9.482;2023-03-11T08:20:38;3.72;;;1.30;;
69956;SDS011;57283;54.816;9.482;2023-03-11T08:26:07;3.65;;;1.55;;
69956;SDS011;57283;54.816;9.482;2023-03-11T08:28:50;3.88;;;1.70;;
69956;SDS011;57283;54.816;9.482;2023-03-11T08:31:18;4.70;;;1.80;;
69956;SDS011;57283;54.816;9.482;2023-03-11T08:33:46;4.05;;;1.92;;
69956;SDS011;57283;54.816;9.482;2023-03-11T08:36:15;5.20;;;1.87;;
69956;SDS011;57283;54.816;9.482;2023-03-11T08:38:43;4.40;;;1.75;;
69956;SDS011;57283;54.816;9.482;2023-03-11T08:41:11;5.38;;;2.20;;
69956;SDS011;57283;54.816;9.482;2023-03-11T08:43:38;4.78;;;2.10;;
69956;SDS011;57283;54.816;9.482;2023-03-11T08:46:09;4.75;;;2.00;;
69956;SDS011;57283;54.816;9.482;2023-03-11T08:53:45;3.60;;;1.95;;
69956;SDS011;57283;54.816;9.482;2023-03-11T08:56:11;4.13;;;2.22;;
69956;SDS011;57283;54.816;9.482;2023-03-11T08:58:37;4.25;;;2.60;;
69956;SDS011;57283;54.816;9.482;2023-03-11T09:01:04;3.97;;;2.10;;
69956;SDS011;57283;54.816;9.482;2023-03-11T09:03:30;5.00;;;2.50;;
69956;SDS011;57283;54.816;9.482;2023-03-11T09:05:57;4.78;;;2.80;;
69956;SDS011;57283;54.816;9.482;2023-03-11T09:08:23;4.13;;;2.63;;
69956;SDS011;57283;54.816;9.482;2023-03-11T09:13:42;4.17;;;2.70;;
69956;SDS011;57283;54.816;9.482;2023-03-11T09:16:08;4.40;;;2.53;;
69956;SDS011;57283;54.816;9.482;2023-03-11T09:18:36;4.38;;;2.83;;
69956;SDS011;57283;54.816;9.482;2023-03-11T09:21:03;6.00;;;2.85;;
69956;SDS011;57283;54.816;9.482;2023-03-11T09:23:30;4.65;;;2.85;;
69956;SDS011;57283;54.816;9.482;2023-03-11T09:25:58;4.40;;;2.40;;
69956;SDS011;57283;54.816;9.482;2023-03-11T09:28:25;4.43;;;2.65;;
69956;SDS011;57283;54.816;9.482;2023-03-11T09:30:55;4.95;;;3.17;;
69956;SDS011;57283;54.816;9.482;2023-03-11T09:33:22;5.32;;;2.90;;
69956;SDS011;57283;54.816;9.482;2023-03-11T09:35:50;4.00;;;2.75;;
69956;SDS011;57283;54.816;9.482;2023-03-11T09:38:18;6.10;;;2.80;;
69956;SDS011;57283;54.816;9.482;2023-03-11T09:40:48;5.97;;;2.97;;
69956;SDS011;57283;54.816;9.482;2023-03-11T09:43:20;4.10;;;3.05;;
69956;SDS011;57283;54.816;9.482;2023-03-11T09:45:52;4.07;;;2.78;;
69956;SDS011;57283;54.816;9.482;2023-03-11T09:48:23;4.90;;;2.72;;
69956;SDS011;57283;54.816;9.482;2023-03-11T09:50:56;4.97;;;2.73;;
69956;SDS011;57283;54.816;9.482;2023-03-11T09:53:27;4.85;;;2.20;;
69956;SDS011;57283;54.816;9.482;2023-03-11T09:55:56;4.40;;;2.50;;
69956;SDS011;57283;54.816;9.482;2023-03-11T09:58:27;4.55;;;2.38;;
69956;SDS011;57283;54.816;9.482;2023-03-11T10:00:56;5.65;;;2.95;;
69956;SDS011;57283;54.816;9.482;2023-03-11T10:03:27;4.07;;;2.67;;
69956;SDS011;57283;54.816;9.482;2023-03-11T10:08:41;3.72;;;2.50;;
69956;SDS011;57283;54.816;9.482;2023-03-11T10:11:12;6.05;;;2.65;;
69956;SDS011;57283;54.816;9.482;2023-03-11T10:13:44;4.43;;;2.75;;
69956;SDS011;57283;54.816;9.482;2023-03-11T10:16:13;4.27;;;2.63;;
69956;SDS011;57283;54.816;9.482;2023-03-11T10:18:49;4.30;;;2.17;;
69956;SDS011;57283;54.816;9.482;2023-03-11T10:21:21;4.88;;;2.97;;
69956;SDS011;57283;54.816;9.482;2023-03-11T10:23:55;4.43;;;2.47;;
69956;SDS011;57283;54.816;9.482;2023-03-11T10:26:27;5.90;;;2.90;;
69956;SDS011;57283;54.816;9.482;2023-03-11T10:28:58;3.60;;;2.27;;
69956;SDS011;57283;54.816;9.482;2023-03-11T10:31:27;5.20;;;3.03;;
69956;SDS011;57283;54.816;9.482;2023-03-11T10:33:59;4.00;;;2.50;;
69956;SDS011;57283;54.816;9.482;2023-03-11T10:36:28;3.85;;;2.15;;
69956;SDS011;57283;54.816;9.482;2023-03-11T10:39:00;4.28;;;2.45;;
69956;SDS011;57283;54.816;9.482;2023-03-11T10:41:29;4.00;;;2.30;;
69956;SDS011;57283;54.816;9.482;2023-03-11T10:43:59;4.03;;;2.40;;
69956;SDS011;57283;54.816;9.482;2023-03-11T10:46:28;4.65;;;2.22;;
69956;SDS011;57283;54.816;9.482;2023-03-11T10:48:57;4.28;;;2.22;;
69956;SDS011;57283;54.816;9.482;2023-03-11T10:51:26;3.58;;;2.30;;
69956;SDS011;57283;54.816;9.482;2023-03-11T10:53:59;3.63;;;1.80;;
69956;SDS011;57283;54.816;9.482;2023-03-11T10:56:28;3.58;;;2.75;;
69956;SDS011;57283;54.816;9.482;2023-03-11T10:58:56;3.70;;;1.65;;
69956;SDS011;57283;54.816;9.482;2023-03-11T11:01:24;3.20;;;1.83;;
69956;SDS011;57283;54.816;9.482;2023-03-11T11:03:54;3.65;;;1.90;;
69956;SDS011;57283;54.816;9.482;2023-03-11T11:06:25;3.77;;;1.47;;
69956;SDS011;57283;54.816;9.482;2023-03-11T11:09:13;4.05;;;1.40;;
69956;SDS011;57283;54.816;9.482;2023-03-11T11:11:41;3.50;;;1.23;;
69956;SDS011;57283;54.816;9.482;2023-03-11T11:14:09;5.45;;;1.20;;
69956;SDS011;57283;54.816;9.482;2023-03-11T11:16:37;4.97;;;1.10;;
69956;SDS011;57283;54.816;9.482;2023-03-11T11:19:07;5.07;;;1.20;;
69956;SDS011;57283;54.816;9.482;2023-03-11T11:21:37;3.45;;;1.20;;
69956;SDS011;57283;54.816;9.482;2023-03-11T11:24:09;2.88;;;1.02;;
69956;SDS011;57283;54.816;9.482;2023-03-11T11:26:38;4.20;;;0.80;;
69956;SDS011;57283;54.816;9.482;2023-03-11T11:29:06;3.60;;;1.00;;
69956;SDS011;57283;54.816;9.482;2023-03-11T11:31:39;3.13;;;0.60;;
69956;SDS011;57283;54.816;9.482;2023-03-11T11:34:21;2.40;;;0.70;;
69956;SDS011;57283;54.816;9.482;2023-03-11T11:36:52;3.60;;;1.10;;
69956;SDS011;57283;54.816;9.482;2023-03-11T11:39:22;2.92;;;1.10;;
69956;SDS011;57283;54.816;9.482;2023-03-11T11:41:51;3.17;;;1.30;;
69956;SDS011;57283;54.816;9.482;2023-03-11T11:44:20;3.23;;;1.57;;
69956;SDS011;57283;54.816;9.482;2023-03-11T11:46:50;3.20;;;1.60;;
69956;SDS011;57283;54.816;9.482;2023-03-11T11:49:20;3.15;;;1.67;;
69956;SDS011;57283;54.816;9.482;2023-03-11T11:51:49;3.08;;;1.67;;
69956;SDS011;57283;54.816;9.482;2023-03-11T11:54:20;4.07;;;2.30;;
69956;SDS011;57283;54.816;9.482;2023-03-11T11:56:50;3.00;;;1.30;;
69956;SDS011;57283;54.816;9.482;2023-03-11T11:59:19;3.38;;;1.10;;
69956;SDS011;57283;54.816;9.482;2023-03-11T12:01:50;4.43;;;1.30;;
69956;SDS011;57283;54.816;9.482;2023-03-11T12:04:36;4.22;;;1.75;;
69956;SDS011;57283;54.816;9.482;2023-03-11T12:07:14;3.80;;;1.20;;
69956;SDS011;57283;54.816;9.482;2023-03-11T12:09:48;3.73;;;1.03;;
69956;SDS011;57283;54.816;9.482;2023-03-11T12:12:19;5.03;;;0.93;;
69956;SDS011;57283;54.816;9.482;2023-03-11T12:14:48;3.15;;;1.02;;
69956;SDS011;57283;54.816;9.482;2023-03-11T12:17:19;3.53;;;0.90;;
69956;SDS011;57283;54.816;9.482;2023-03-11T12:19:49;2.60;;;1.00;;
69956;SDS011;57283;54.816;9.482;2023-03-11T12:25:26;4.47;;;1.00;;
69956;SDS011;57283;54.816;9.482;2023-03-11T12:27:57;4.45;;;1.00;;
69956;SDS011;57283;54.816;9.482;2023-03-11T12:30:25;5.53;;;0.80;;
69956;SDS011;57283;54.816;9.482;2023-03-11T12:32:55;3.08;;;0.90;;
69956;SDS011;57283;54.816;9.482;2023-03-11T12:35:25;3.40;;;1.00;;
69956;SDS011;57283;54.816;9.482;2023-03-11T12:38:06;2.40;;;0.70;;
69956;SDS011;57283;54.816;9.482;2023-03-11T12:40:47;3.15;;;0.82;;
69956;SDS011;57283;54.816;9.482;2023-03-11T12:43:25;3.22;;;1.00;;
69956;SDS011;57283;54.816;9.482;2023-03-11T12:45:55;4.57;;;1.25;;
69956;SDS011;57283;54.816;9.482;2023-03-11T12:48:30;4.30;;;1.20;;
69956;SDS011;57283;54.816;9.482;2023-03-11T12:50:59;3.35;;;1.35;;
69956;SDS011;57283;54.816;9.482;2023-03-11T12:53:44;4.03;;;1.73;;
69956;SDS011;57283;54.816;9.482;2023-03-11T12:56:21;3.15;;;1.15;;
69956;SDS011;57283;54.816;9.482;2023-03-11T12:58:55;3.42;;;0.90;;
69956;SDS011;57283;54.816;9.482;2023-03-11T13:01:32;3.97;;;1.57;;
69956;SDS011;57283;54.816;9.482;2023-03-11T13:07:05;3.38;;;1.30;;
69956;SDS011;57283;54.816;9.482;2023-03-11T13:09:39;3.75;;;1.10;;
69956;SDS011;57283;54.816;9.482;2023-03-11T13:14:51;3.70;;;0.90;;
69956;SDS011;57283;54.816;9.482;2023-03-11T13:17:39;3.65;;;1.08;;
69956;SDS011;57283;54.816;9.482;2023-03-11T13:20:37;4.35;;;1.10;;
69956;SDS011;57283;54.816;9.482;2023-03-11T13:25:42;2.30;;;0.60;;
69956;SDS011;57283;54.816;9.482;2023-03-11T13:28:28;3.80;;;0.77;;
69956;SDS011;57283;54.816;9.482;2023-03-11T13:31:04;2.33;;;0.60;;
69956;SDS011;57283;54.816;9.482;2023-03-11T13:33:41;3.20;;;1.00;;
69956;SDS011;57283;54.816;9.482;2023-03-11T13:36:13;2.15;;;0.60;;
69956;SDS011;57283;54.816;9.482;2023-03-11T13:38:51;2.75;;;0.90;;
69956;SDS011;57283;54.816;9.482;2023-03-11T13:41:26;2.40;;;0.90;;
69956;SDS011;57283;54.816;9.482;2023-03-11T13:43:54;2.92;;;1.05;;
69956;SDS011;57283;54.816;9.482;2023-03-11T13:46:25;3.65;;;1.20;;
69956;SDS011;57283;54.816;9.482;2023-03-11T13:48:55;4.07;;;1.08;;
69956;SDS011;57283;54.816;9.482;2023-03-11T13:51:29;3.25;;;1.27;;
69956;SDS011;57283;54.816;9.482;2023-03-11T13:53:59;2.93;;;1.40;;
69956;SDS011;57283;54.816;9.482;2023-03-11T13:56:30;3.85;;;1.63;;
69956;SDS011;57283;54.816;9.482;2023-03-11T13:59:14;3.80;;;1.30;;
69956;SDS011;57283;54.816;9.482;2023-03-11T14:01:46;3.03;;;1.38;;
69956;SDS011;57283;54.816;9.482;2023-03-11T14:04:14;3.50;;;1.50;;
69956;SDS011;57283;54.816;9.482;2023-03-11T14:06:45;4.10;;;1.60;;
69956;SDS011;57283;54.816;9.482;2023-03-11T14:09:16;3.90;;;1.30;;
69956;SDS011;57283;54.816;9.482;2023-03-11T14:11:46;4.72;;;1.40;;
69956;SDS011;57283;54.816;9.482;2023-03-11T14:14:26;4.72;;;1.45;;
69956;SDS011;57283;54.816;9.482;2023-03-11T14:16:56;3.33;;;1.00;;
69956;SDS011;57283;54.816;9.482;2023-03-11T14:19:26;3.90;;;1.20;;
69956;SDS011;57283;54.816;9.482;2023-03-11T14:21:54;4.55;;;1.30;;
69956;SDS011;57283;54.816;9.482;2023-03-11T14:24:22;5.00;;;1.20;;
69956;SDS011;57283;54.816;9.482;2023-03-11T14:26:53;4.63;;;1.17;;
69956;SDS011;57283;54.816;9.482;2023-03-11T14:29:23;5.65;;;1.00;;
69956;SDS011;57283;54.816;9.482;2023-03-11T14:31:54;3.50;;;0.90;;
69956;SDS011;57283;54.816;9.482;2023-03-11T14:34:22;4.50;;;1.00;;
69956;SDS011;57283;54.816;9.482;2023-03-11T14:36:51;5.53;;;1.27;;
69956;SDS011;57283;54.816;9.482;2023-03-11T14:39:21;4.30;;;1.17;;
69956;SDS011;57283;54.816;9.482;2023-03-11T14:41:49;4.15;;;1.15;;
69956;SDS011;57283;54.816;9.482;2023-03-11T14:44:18;4.80;;;1.00;;
69956;SDS011;57283;54.816;9.482;2023-03-11T14:46:46;6.43;;;1.65;;
69956;SDS011;57283;54.816;9.482;2023-03-11T14:49:16;3.05;;;0.80;;
69956;SDS011;57283;54.816;9.482;2023-03-11T14:51:45;4.78;;;0.90;;
69956;SDS011;57283;54.816;9.482;2023-03-11T14:54:15;6.22;;;1.35;;
69956;SDS011;57283;54.816;9.482;2023-03-11T14:56:45;5.13;;;1.30;;
69956;SDS011;57283;54.816;9.482;2023-03-11T14:59:16;4.93;;;1.00;;
69956;SDS011;57283;54.816;9.482;2023-03-11T15:01:49;5.00;;;1.10;;
69956;SDS011;57283;54.816;9.482;2023-03-11T15:04:19;5.00;;;0.90;;
69956;SDS011;57283;54.816;9.482;2023-03-11T15:06:52;6.13;;;1.20;;
69956;SDS011;57283;54.816;9.482;2023-03-11T15:09:21;2.80;;;0.70;;
69956;SDS011;57283;54.816;9.482;2023-03-11T15:11:49;5.03;;;1.25;;
69956;SDS011;57283;54.816;9.482;2023-03-11T15:14:21;3.05;;;0.65;;
69956;SDS011;57283;54.816;9.482;2023-03-11T15:16:51;3.25;;;0.60;;
69956;SDS011;57283;54.816;9.482;2023-03-11T15:19:31;2.15;;;0.50;;
69956;SDS011;57283;54.816;9.482;2023-03-11T15:22:04;4.30;;;0.50;;
69956;SDS011;57283;54.816;9.482;2023-03-11T15:24:32;2.90;;;0.60;;
69956;SDS011;57283;54.816;9.482;2023-03-11T15:27:01;3.03;;;0.70;;